Terminal Aerodrome Forecast
Issued by NWS

Home | Current Version | Previous Version | Text Only | Print | Product List | Glossary On
Versions: 1 2 3 4 5 6 7 8 9 10 11 12 13 14 15 16 17 18 19 20 21
000
FTUS43 KAPX 300533
TAFMBL
TAF
KMBL 300533Z 3006/0106 05008KT P6SM -RA OVC070
     FM300900 07011G19KT P6SM -RA OVC015
     FM302200 08012G21KT 2SM RA BR OVC015
     FM010300 09010G20KT 3SM RA OVC015=

USA.gov is the U.S. government's official web portal to all federal, state and local government web resources and services.